createdAt,value
2023-02-13T00:00:37.528Z,50.866932
2023-02-13T00:01:37.518Z,50.867043
2023-02-13T00:02:37.518Z,50.867153
2023-02-13T00:03:37.612Z,50.867264
2023-02-13T00:04:37.518Z,50.867207
2023-02-13T00:05:37.491Z,50.867374
2023-02-13T00:06:37.485Z,50.867340
2023-02-13T00:07:38.475Z,50.867439
2023-02-13T00:08:37.509Z,50.867146
2023-02-13T00:09:37.481Z,50.867081
2023-02-13T00:10:37.475Z,50.867180
2023-02-13T00:11:37.447Z,50.867203
2023-02-13T00:12:37.438Z,50.867447
2023-02-13T00:13:37.439Z,50.867451
2023-02-13T00:14:37.422Z,50.867264
2023-02-13T00:15:37.463Z,50.867142
2023-02-13T00:16:37.407Z,50.867165
2023-02-13T00:17:37.395Z,50.867386
2023-02-13T00:18:37.392Z,50.867210
2023-02-13T00:19:37.380Z,50.867439
2023-02-13T00:20:37.386Z,50.867352
2023-02-13T00:21:37.367Z,50.867409
2023-02-13T00:22:37.361Z,50.867348
2023-02-13T00:23:37.349Z,50.867523
2023-02-13T00:37:27.796Z,50.866508
2023-02-13T00:38:27.788Z,50.866478
2023-02-13T00:39:27.777Z,50.866219
2023-02-13T00:40:27.787Z,50.866638
2023-02-13T00:41:27.767Z,50.866428
2023-02-13T00:42:27.759Z,50.866428
2023-02-13T00:43:27.749Z,50.866295
2023-02-13T00:44:27.750Z,50.866158
2023-02-13T00:45:27.730Z,50.866234
2023-02-13T00:46:27.826Z,50.866173
2023-02-13T00:47:28.228Z,50.866360
2023-02-13T00:48:27.698Z,50.866306
2023-02-13T00:49:27.698Z,50.866089
2023-02-13T00:50:27.690Z,50.866093
2023-02-13T00:51:28.688Z,50.865757
2023-02-13T00:52:27.666Z,50.866127
2023-02-13T00:53:28.659Z,50.865978
2023-02-13T00:54:27.654Z,50.866283
2023-02-13T00:55:27.645Z,50.866306
2023-02-13T00:56:27.643Z,50.866436
2023-02-13T00:57:27.632Z,50.866360
2023-02-13T00:58:28.285Z,50.866287
2023-02-13T00:59:27.638Z,50.866272
2023-02-13T01:00:27.602Z,50.866261
2023-02-13T01:01:27.625Z,50.866302
2023-02-13T01:02:27.594Z,50.866322
2023-02-13T01:03:27.610Z,50.866230
2023-02-13T01:04:28.177Z,50.866219
2023-02-13T01:05:27.577Z,50.866234
2023-02-13T01:06:27.560Z,50.866272
2023-02-13T01:07:27.543Z,50.866215
2023-02-13T01:08:27.551Z,50.866356
2023-02-13T01:09:27.551Z,50.866333
2023-02-13T01:10:27.579Z,50.866234
2023-02-13T01:11:27.521Z,50.866123
2023-02-13T01:12:27.510Z,50.866055
2023-02-13T01:13:27.502Z,50.865898
2023-02-13T01:14:27.495Z,50.865761
2023-02-13T01:15:27.482Z,50.865448
2023-02-13T01:16:27.525Z,50.865490
2023-02-13T01:17:27.465Z,50.865467
2023-02-13T01:18:27.465Z,50.865780
2023-02-13T01:19:27.462Z,50.866680
2023-02-13T01:20:28.163Z,50.866646
2023-02-13T01:21:27.437Z,50.866657
2023-02-13T01:22:27.426Z,50.866638
2023-02-13T01:23:27.425Z,50.866604
2023-02-13T01:24:27.416Z,50.866634
2023-02-13T01:25:27.413Z,50.866627
2023-02-13T01:26:27.405Z,50.866646
2023-02-13T01:27:27.391Z,50.866661
2023-02-13T01:28:27.415Z,50.866646
2023-02-13T01:29:27.366Z,50.866661
2023-02-13T01:30:27.357Z,50.866650
2023-02-13T01:31:27.507Z,50.866642
2023-02-13T01:32:27.347Z,50.866581
2023-02-13T01:33:27.346Z,50.866577
2023-02-13T01:34:27.327Z,50.866566
2023-02-13T01:35:27.323Z,50.866596
2023-02-13T01:36:27.339Z,50.866570
2023-02-13T01:37:27.314Z,50.866585
2023-02-13T01:38:27.299Z,50.866566
2023-02-13T01:39:27.284Z,50.866558
2023-02-13T01:40:27.284Z,50.866581
2023-02-13T01:41:27.294Z,50.866539
2023-02-13T01:42:27.261Z,50.866501
2023-02-13T01:43:27.252Z,50.866592
2023-02-13T01:44:27.243Z,50.866680
2023-02-13T01:45:27.244Z,50.866585
2023-02-13T01:46:27.298Z,50.866535
2023-02-13T01:47:27.231Z,50.866627
2023-02-13T01:48:27.223Z,50.866581
2023-02-13T01:49:27.742Z,50.866596
2023-02-13T01:50:27.206Z,50.866608
2023-02-13T01:51:27.196Z,50.866631
2023-02-13T01:52:27.176Z,50.866722
2023-02-13T01:53:27.171Z,50.866695
2023-02-13T01:54:27.172Z,50.866650
2023-02-13T01:55:27.162Z,50.866661
2023-02-13T01:56:27.161Z,50.866585
2023-02-13T01:57:27.143Z,50.866611
2023-02-13T01:58:27.130Z,50.866615
2023-02-13T01:59:27.132Z,50.866615
2023-02-13T02:00:27.676Z,50.866673
2023-02-13T02:01:27.736Z,50.866661
2023-02-13T02:02:27.150Z,50.866653
2023-02-13T02:03:27.096Z,50.866631
2023-02-13T02:04:27.096Z,50.866627
2023-02-13T02:05:27.081Z,50.866653
2023-02-13T02:06:27.067Z,50.866634
2023-02-13T02:07:27.078Z,50.866619
2023-02-13T02:08:27.068Z,50.866653
2023-02-13T02:09:27.045Z,50.866657
2023-02-13T02:10:27.053Z,50.866619
2023-02-13T02:11:27.044Z,50.866631
2023-02-13T02:12:27.037Z,50.866615
2023-02-13T02:13:27.019Z,50.866646
2023-02-13T02:14:27.019Z,50.866684
2023-02-13T02:15:27.009Z,50.866665
2023-02-13T02:16:27.094Z,50.866688
2023-02-13T02:17:26.989Z,50.866699
2023-02-13T02:18:26.984Z,50.866673
2023-02-13T02:19:26.971Z,50.866688
2023-02-13T02:20:26.964Z,50.866646
2023-02-13T02:21:26.957Z,50.866676
2023-02-13T02:22:26.952Z,50.866730
2023-02-13T02:23:26.951Z,50.866692
2023-02-13T02:24:26.929Z,50.866657
2023-02-13T02:25:26.922Z,50.866577
2023-02-13T02:26:26.918Z,50.866653
2023-02-13T02:27:26.920Z,50.866627
2023-02-13T02:28:26.940Z,50.866642
2023-02-13T02:29:26.902Z,50.866673
2023-02-13T02:30:26.906Z,50.866676
2023-02-13T02:31:26.907Z,50.866722
2023-02-13T02:32:26.866Z,50.866703
2023-02-13T02:33:27.756Z,50.866684
2023-02-13T02:34:26.867Z,50.866684
2023-02-13T02:35:26.851Z,50.866657
2023-02-13T02:36:26.849Z,50.866665
2023-02-13T02:37:27.681Z,50.866676
2023-02-13T02:38:26.827Z,50.866737
2023-02-13T02:39:26.813Z,50.866753
2023-02-13T02:40:26.822Z,50.866756
2023-02-13T02:41:26.805Z,50.866783
2023-02-13T02:42:26.804Z,50.866745
2023-02-13T02:43:26.784Z,50.866718
2023-02-13T02:44:26.788Z,50.866734
2023-02-13T02:45:26.770Z,50.866714
2023-02-13T02:46:26.794Z,50.866753
2023-02-13T02:47:26.758Z,50.866760
2023-02-13T02:48:26.728Z,50.866734
2023-02-13T02:49:28.684Z,50.866741
2023-02-13T02:50:26.746Z,50.866722
2023-02-13T02:51:26.730Z,50.866745
2023-02-13T02:52:26.714Z,50.866756
2023-02-13T02:53:26.709Z,50.866791
2023-02-13T02:54:26.710Z,50.866756
2023-02-13T02:55:26.680Z,50.866749
2023-02-13T02:56:26.687Z,50.866772
2023-02-13T02:57:26.670Z,50.866756
2023-02-13T02:58:26.669Z,50.866776
2023-02-13T02:59:26.648Z,50.866745
2023-02-13T03:00:26.654Z,50.866768
2023-02-13T03:01:26.645Z,50.866772
2023-02-13T03:02:26.626Z,50.866776
2023-02-13T03:03:26.623Z,50.866756
2023-02-13T03:04:26.619Z,50.866776
2023-02-13T03:05:26.611Z,50.866783
2023-02-13T03:06:26.599Z,50.866768
2023-02-13T03:07:26.589Z,50.866760
2023-02-13T03:08:26.580Z,50.866772
2023-02-13T03:09:26.572Z,50.866741
2023-02-13T03:10:26.567Z,50.866741
2023-02-13T03:11:26.555Z,50.866726
2023-02-13T03:12:27.178Z,50.866756
2023-02-13T03:13:27.180Z,50.866741
2023-02-13T03:14:26.529Z,50.866753
2023-02-13T03:15:26.519Z,50.866734
2023-02-13T03:16:27.291Z,50.866741
2023-02-13T03:17:26.501Z,50.866737
2023-02-13T03:18:26.500Z,50.866745
2023-02-13T03:19:26.490Z,50.866734
2023-02-13T03:20:26.477Z,50.866745
2023-02-13T03:21:26.482Z,50.866764
2023-02-13T03:22:26.469Z,50.866768
2023-02-13T03:23:26.463Z,50.866749
2023-02-13T03:24:26.450Z,50.866760
2023-02-13T03:25:27.182Z,50.866783
2023-02-13T03:26:26.438Z,50.866718
2023-02-13T03:27:26.429Z,50.866760
2023-02-13T03:28:26.458Z,50.866764
2023-02-13T03:29:26.410Z,50.866745
2023-02-13T03:30:26.452Z,50.866703
2023-02-13T03:31:26.417Z,50.866726
2023-02-13T03:32:26.388Z,50.866768
2023-02-13T03:33:26.381Z,50.866776
2023-02-13T03:34:26.366Z,50.866783
2023-02-13T03:35:26.365Z,50.866848
2023-02-13T03:36:26.368Z,50.866871
2023-02-13T03:37:26.342Z,50.866825
2023-02-13T03:38:26.345Z,50.866856
2023-02-13T03:39:26.329Z,50.866768
2023-02-13T03:40:26.316Z,50.866882
2023-02-13T03:41:26.313Z,50.866871
2023-02-13T03:42:26.842Z,50.866871
2023-02-13T03:43:26.297Z,50.866844
2023-02-13T03:44:27.190Z,50.866802
2023-02-13T03:45:26.279Z,50.866722
2023-02-13T03:46:27.286Z,50.866859
2023-02-13T03:47:26.262Z,50.866779
2023-02-13T03:48:26.285Z,50.866825
2023-02-13T03:49:28.779Z,50.866856
2023-02-13T03:50:26.242Z,50.866844
2023-02-13T03:51:26.236Z,50.866810
2023-02-13T03:52:26.305Z,50.866798
2023-02-13T03:53:26.218Z,50.866783
2023-02-13T03:54:26.209Z,50.866802
2023-02-13T03:55:26.199Z,50.866753
2023-02-13T03:56:26.189Z,50.866718
2023-02-13T03:57:26.177Z,50.866787
2023-02-13T03:58:26.191Z,50.866886
2023-02-13T03:59:26.176Z,50.866890
2023-02-13T04:00:26.155Z,50.866898
2023-02-13T04:01:26.169Z,50.866943
2023-02-13T04:02:26.150Z,50.866974
2023-02-13T04:03:26.130Z,50.867039
2023-02-13T04:04:27.141Z,50.867035
2023-02-13T04:05:26.115Z,50.867092
2023-02-13T04:06:26.115Z,50.867184
2023-02-13T04:07:26.099Z,50.867207
2023-02-13T04:08:26.084Z,50.867191
2023-02-13T04:09:26.081Z,50.867130
2023-02-13T04:10:26.067Z,50.867138
2023-02-13T04:11:26.062Z,50.867096
2023-02-13T04:12:26.064Z,50.866974
2023-02-13T04:13:26.046Z,50.866966
2023-02-13T04:14:26.053Z,50.866886
2023-02-13T04:15:26.074Z,50.866859
2023-02-13T04:16:26.026Z,50.866886
2023-02-13T04:17:26.036Z,50.866913
2023-02-13T04:18:26.690Z,50.866898
2023-02-13T04:19:25.997Z,50.866913
2023-02-13T04:20:26.005Z,50.866886
2023-02-13T04:21:25.985Z,50.866943
2023-02-13T04:22:25.976Z,50.867004
2023-02-13T04:23:25.970Z,50.866924
2023-02-13T04:24:25.968Z,50.866894
2023-02-13T04:25:25.974Z,50.866837
2023-02-13T04:26:25.948Z,50.866810
2023-02-13T04:27:25.935Z,50.866886
2023-02-13T04:28:25.988Z,50.866829
2023-02-13T04:29:25.926Z,50.866833
2023-02-13T04:30:25.985Z,50.866760
2023-02-13T04:31:26.058Z,50.866741
2023-02-13T04:32:25.902Z,50.866749
2023-02-13T04:33:25.888Z,50.866791
2023-02-13T04:34:25.902Z,50.866867
2023-02-13T04:35:25.881Z,50.866825
2023-02-13T04:36:25.876Z,50.866833
2023-02-13T04:37:25.859Z,50.866795
2023-02-13T04:38:25.863Z,50.866730
2023-02-13T04:39:25.846Z,50.866703
2023-02-13T04:40:25.844Z,50.866745
2023-02-13T04:41:26.807Z,50.866802
2023-02-13T04:42:27.783Z,50.866745
2023-02-13T04:43:26.774Z,50.866741
2023-02-13T04:44:25.809Z,50.866714
2023-02-13T04:45:25.797Z,50.866776
2023-02-13T04:46:25.929Z,50.866764
2023-02-13T04:47:25.779Z,50.866776
2023-02-13T04:48:25.768Z,50.866737
2023-02-13T04:49:25.766Z,50.866749
2023-02-13T04:50:25.758Z,50.866787
2023-02-13T04:51:25.750Z,50.866734
2023-02-13T04:52:25.743Z,50.866753
2023-02-13T04:53:25.726Z,50.866779
2023-02-13T04:54:25.737Z,50.866783
2023-02-13T04:55:25.723Z,50.866741
2023-02-13T04:56:25.722Z,50.866756
2023-02-13T04:57:25.697Z,50.866726
2023-02-13T04:58:25.692Z,50.866730
2023-02-13T04:59:25.691Z,50.866734
2023-02-13T05:00:25.676Z,50.866764
2023-02-13T05:01:25.700Z,50.866722
2023-02-13T05:02:25.653Z,50.866756
2023-02-13T05:03:26.204Z,50.866726
2023-02-13T05:04:25.705Z,50.866753
2023-02-13T05:05:25.637Z,50.866745
2023-02-13T05:06:25.623Z,50.866734
2023-02-13T05:07:25.620Z,50.866745
2023-02-13T05:08:25.617Z,50.866764
2023-02-13T05:09:25.619Z,50.866764
2023-02-13T05:10:25.600Z,50.866768
2023-02-13T05:11:25.578Z,50.866753
2023-02-13T05:12:26.577Z,50.866711
2023-02-13T05:13:25.575Z,50.866734
2023-02-13T05:14:25.560Z,50.866753
2023-02-13T05:15:25.704Z,50.866726
2023-02-13T05:16:25.546Z,50.866726
2023-02-13T05:17:28.024Z,50.866730
2023-02-13T05:18:26.526Z,50.866718
2023-02-13T05:19:25.523Z,50.866711
2023-02-13T05:20:25.522Z,50.866734
2023-02-13T05:21:25.506Z,50.866711
2023-02-13T05:22:25.619Z,50.866699
2023-02-13T05:23:25.493Z,50.866692
2023-02-13T05:24:25.488Z,50.866745
2023-02-13T05:25:25.470Z,50.866692
2023-02-13T05:26:26.289Z,50.866714
2023-02-13T05:27:25.468Z,50.866669
2023-02-13T05:28:25.672Z,50.866695
2023-02-13T05:29:26.207Z,50.866711
2023-02-13T05:30:25.436Z,50.866718
2023-02-13T05:31:25.571Z,50.866684
2023-02-13T05:32:25.432Z,50.866722
2023-02-13T05:33:25.421Z,50.866695
2023-02-13T05:34:25.401Z,50.866665
2023-02-13T05:35:25.392Z,50.866688
2023-02-13T05:36:25.385Z,50.866699
2023-02-13T05:37:25.382Z,50.866741
2023-02-13T05:38:25.402Z,50.866707
2023-02-13T05:39:25.371Z,50.866680
2023-02-13T05:40:25.357Z,50.866657
2023-02-13T05:41:25.383Z,50.866661
2023-02-13T05:42:25.351Z,50.866676
2023-02-13T05:43:25.333Z,50.866692
2023-02-13T05:44:25.335Z,50.866669
2023-02-13T05:45:25.316Z,50.866703
2023-02-13T05:46:25.358Z,50.866695
2023-02-13T05:47:25.298Z,50.866745
2023-02-13T05:48:25.283Z,50.866737
2023-02-13T05:49:25.287Z,50.866791
2023-02-13T05:50:25.271Z,50.866837
2023-02-13T05:51:25.278Z,50.866772
2023-02-13T05:52:25.268Z,50.866798
2023-02-13T05:53:25.248Z,50.866745
2023-02-13T05:54:25.249Z,50.866776
2023-02-13T05:55:26.876Z,50.866810
2023-02-13T05:56:25.309Z,50.866879
2023-02-13T05:57:25.214Z,50.866844
2023-02-13T05:58:25.213Z,50.866779
2023-02-13T05:59:25.204Z,50.866688
2023-02-13T06:00:25.190Z,50.866772
2023-02-13T06:01:25.186Z,50.866947
2023-02-13T06:02:25.205Z,50.866882
2023-02-13T06:03:25.200Z,50.866837
2023-02-13T06:04:25.726Z,50.866726
2023-02-13T06:05:25.145Z,50.866806
2023-02-13T06:06:25.146Z,50.866871
2023-02-13T06:07:25.153Z,50.866863
2023-02-13T06:08:25.128Z,50.866833
2023-02-13T06:09:25.114Z,50.866772
2023-02-13T06:10:25.113Z,50.866756
2023-02-13T06:11:25.117Z,50.866737
2023-02-13T06:12:25.110Z,50.866714
2023-02-13T06:13:25.089Z,50.866631
2023-02-13T06:14:25.083Z,50.866737
2023-02-13T06:15:25.064Z,50.866707
2023-02-13T06:16:25.154Z,50.866768
2023-02-13T06:17:25.048Z,50.866779
2023-02-13T06:18:25.062Z,50.866745
2023-02-13T06:19:25.051Z,50.866726
2023-02-13T06:20:25.028Z,50.866714
2023-02-13T06:21:30.728Z,50.866798
2023-02-13T06:22:26.720Z,50.866837
2023-02-13T06:23:25.043Z,50.866726
2023-02-13T06:24:24.991Z,50.866726
2023-02-13T06:25:24.986Z,50.866821
2023-02-13T06:26:24.974Z,50.866734
2023-02-13T06:27:24.972Z,50.866734
2023-02-13T06:28:25.064Z,50.866745
2023-02-13T06:29:26.823Z,50.866722
2023-02-13T06:30:25.015Z,50.866741
2023-02-13T06:31:25.088Z,50.866768
2023-02-13T06:32:24.942Z,50.866753
2023-02-13T06:33:24.927Z,50.866734
2023-02-13T06:34:25.798Z,50.866734
2023-02-13T06:35:24.915Z,50.866779
2023-02-13T06:36:24.925Z,50.866634
2023-02-13T06:37:24.923Z,50.866890
2023-02-13T06:38:24.951Z,50.866859
2023-02-13T06:39:24.892Z,50.866959
2023-02-13T06:40:24.871Z,50.866806
2023-02-13T06:41:24.893Z,50.866905
2023-02-13T06:42:24.858Z,50.866974
2023-02-13T06:43:24.840Z,50.867054
2023-02-13T06:44:24.842Z,50.867004
2023-02-13T06:45:24.833Z,50.867260
2023-02-13T06:46:25.738Z,50.867226
2023-02-13T06:47:24.800Z,50.868286
2023-02-13T06:48:25.799Z,50.867561
2023-02-13T06:49:24.800Z,50.867123
2023-02-13T06:50:24.779Z,50.866951
2023-02-13T06:51:24.788Z,50.866879
2023-02-13T06:52:24.772Z,50.866833
2023-02-13T06:53:24.940Z,50.866886
2023-02-13T06:54:37.107Z,50.866863
2023-02-13T06:55:26.743Z,50.866909
2023-02-13T06:56:24.740Z,50.866978
2023-02-13T06:57:24.735Z,50.866856
2023-02-13T06:58:24.721Z,50.866932
2023-02-13T06:59:24.709Z,50.866898
2023-02-13T07:00:26.262Z,50.866856
2023-02-13T07:01:25.404Z,50.866817
2023-02-13T07:02:26.408Z,50.866879
2023-02-13T07:03:24.693Z,50.866806
2023-02-13T07:04:25.316Z,50.866844
2023-02-13T07:05:24.688Z,50.866772
2023-02-13T07:06:26.311Z,50.866844
2023-02-13T07:07:24.644Z,50.866806
2023-02-13T07:08:24.624Z,50.866817
2023-02-13T07:09:24.636Z,50.866768
2023-02-13T07:10:24.622Z,50.866760
2023-02-13T07:11:24.628Z,50.866787
2023-02-13T07:12:25.225Z,50.866718
2023-02-13T07:13:24.600Z,50.866905
2023-02-13T07:14:24.605Z,50.866913
2023-02-13T07:15:26.252Z,50.866673
2023-02-13T07:16:24.598Z,50.866714
2023-02-13T07:17:25.556Z,50.866783
2023-02-13T07:18:24.573Z,50.866894
2023-02-13T07:19:24.549Z,50.866871
2023-02-13T07:20:24.542Z,50.866810
2023-02-13T07:21:24.537Z,50.866718
2023-02-13T07:22:24.525Z,50.866737
2023-02-13T07:23:24.512Z,50.866768
2023-02-13T07:24:24.533Z,50.866810
2023-02-13T07:25:24.516Z,50.866772
2023-02-13T07:26:24.497Z,50.866726
2023-02-13T07:27:25.326Z,50.866699
2023-02-13T07:28:24.569Z,50.866722
2023-02-13T07:29:25.229Z,50.866714
2023-02-13T07:30:24.522Z,50.866707
2023-02-13T07:31:24.524Z,50.866814
2023-02-13T07:32:24.448Z,50.866814
2023-02-13T07:33:25.232Z,50.866764
2023-02-13T07:34:24.417Z,50.866798
2023-02-13T07:35:24.411Z,50.866722
2023-02-13T07:39:33.190Z,50.866669
2023-02-13T07:40:32.318Z,50.866627
2023-02-13T07:41:33.187Z,50.866604
2023-02-13T07:42:33.307Z,50.866627
2023-02-13T07:43:33.105Z,50.866531
2023-02-13T07:44:32.289Z,50.866505
2023-02-13T07:45:32.285Z,50.866501
2023-02-13T07:46:32.345Z,50.866535
2023-02-13T07:47:32.260Z,50.866440
2023-02-13T07:48:32.268Z,50.866444
2023-02-13T07:49:32.246Z,50.866600
2023-02-13T07:50:32.251Z,50.866562
2023-02-13T07:51:32.239Z,50.866745
2023-02-13T07:52:33.116Z,50.866814
2023-02-13T07:53:32.219Z,50.866760
2023-02-13T07:54:32.197Z,50.866680
2023-02-13T07:55:32.193Z,50.866722
2023-02-13T07:56:32.234Z,50.866753
2023-02-13T07:57:33.162Z,50.866787
2023-02-13T07:58:32.180Z,50.866753
2023-02-13T07:59:32.163Z,50.866795
2023-02-13T08:00:32.150Z,50.866798
2023-02-13T08:01:32.213Z,50.866810
2023-02-13T08:02:32.152Z,50.866768
2023-02-13T08:03:32.207Z,50.866753
2023-02-13T08:04:32.149Z,50.866760
2023-02-13T08:05:32.111Z,50.866787
2023-02-13T08:06:32.122Z,50.866852
2023-02-13T08:07:32.097Z,50.866779
2023-02-13T08:08:32.087Z,50.866814
2023-02-13T08:09:32.079Z,50.866791
2023-02-13T08:10:32.066Z,50.866817
2023-02-13T08:11:32.064Z,50.866798
2023-02-13T08:12:32.068Z,50.866730
2023-02-13T08:13:32.049Z,50.866692
2023-02-13T08:14:32.719Z,50.866718
2023-02-13T08:15:32.044Z,50.866814
2023-02-13T08:16:32.030Z,50.866787
2023-02-13T08:17:32.052Z,50.866753
2023-02-13T08:18:32.019Z,50.866737
2023-02-13T08:19:31.988Z,50.866756
2023-02-13T08:20:32.017Z,50.866806
2023-02-13T08:21:31.988Z,50.866779
2023-02-13T08:22:31.989Z,50.866787
2023-02-13T08:23:31.977Z,50.866779
2023-02-13T08:24:31.949Z,50.866787
2023-02-13T08:25:31.935Z,50.866779
2023-02-13T08:26:31.933Z,50.866768
2023-02-13T08:27:31.926Z,50.866776
2023-02-13T08:28:31.998Z,50.866791
2023-02-13T08:29:31.925Z,50.866817
2023-02-13T08:30:31.897Z,50.866863
2023-02-13T08:31:32.064Z,50.866852
2023-02-13T08:32:41.987Z,50.866852
2023-02-13T08:33:33.615Z,50.866837
2023-02-13T08:34:31.963Z,50.866810
2023-02-13T08:35:31.869Z,50.866821
2023-02-13T08:36:31.860Z,50.866821
2023-02-13T08:37:31.852Z,50.866760
2023-02-13T08:38:31.873Z,50.866749
2023-02-13T08:39:31.826Z,50.866714
2023-02-13T08:40:31.823Z,50.866764
2023-02-13T08:41:31.845Z,50.866741
2023-02-13T08:42:31.802Z,50.866817
2023-02-13T08:43:31.786Z,50.866741
2023-02-13T08:44:32.616Z,50.866772
2023-02-13T08:45:32.581Z,50.866756
2023-02-13T08:46:31.884Z,50.866802
2023-02-13T08:47:31.750Z,50.866791
2023-02-13T08:48:31.741Z,50.866760
2023-02-13T08:49:31.734Z,50.866749
2023-02-13T08:50:31.747Z,50.866783
2023-02-13T08:51:31.735Z,50.866814
2023-02-13T08:52:31.714Z,50.866776
2023-02-13T08:53:31.706Z,50.866795
2023-02-13T08:54:31.704Z,50.866772
2023-02-13T08:55:32.661Z,50.866760
2023-02-13T08:59:39.615Z,50.866714
2023-02-13T09:00:39.607Z,50.866764
2023-02-13T09:01:39.658Z,50.866730
2023-02-13T09:02:39.666Z,50.866737
2023-02-13T09:03:39.579Z,50.866756
2023-02-13T09:08:50.233Z,50.866695
2023-02-13T09:09:50.194Z,50.866718
2023-02-13T09:10:50.181Z,50.866676
2023-02-13T09:11:49.379Z,50.866726
2023-02-13T09:12:49.374Z,50.866730
2023-02-13T09:13:49.377Z,50.866783
2023-02-13T09:14:49.358Z,50.866867
2023-02-13T09:15:50.202Z,50.866783
2023-02-13T09:16:49.353Z,50.866772
2023-02-13T09:17:49.346Z,50.866798
2023-02-13T09:18:49.329Z,50.866749
2023-02-13T09:24:57.244Z,50.866772
2023-02-13T09:25:57.536Z,50.866772
2023-02-13T09:26:58.115Z,50.866756
2023-02-13T09:27:57.228Z,50.866760
2023-02-13T09:28:57.210Z,50.866772
2023-02-13T09:29:57.212Z,50.866768
2023-02-13T09:30:57.300Z,50.866768
2023-02-13T09:31:57.304Z,50.866730
2023-02-13T09:32:57.172Z,50.866734
2023-02-13T09:33:57.162Z,50.866772
2023-02-13T09:34:57.164Z,50.866783
2023-02-13T09:35:57.544Z,50.866772
2023-02-13T09:36:57.148Z,50.866741
2023-02-13T09:37:57.137Z,50.866737
2023-02-13T09:38:57.176Z,50.866760
2023-02-13T09:39:57.136Z,50.866749
2023-02-13T09:40:57.123Z,50.866749
2023-02-13T09:41:58.054Z,50.866768
2023-02-13T09:42:57.113Z,50.866753
2023-02-13T09:43:57.077Z,50.866756
2023-02-13T09:44:58.082Z,50.866756
2023-02-13T09:45:57.408Z,50.866772
2023-02-13T09:46:57.069Z,50.866768
2023-02-13T09:47:57.058Z,50.866783
2023-02-13T09:48:57.057Z,50.866772
2023-02-13T09:49:57.067Z,50.866737
2023-02-13T09:50:57.057Z,50.866764
2023-02-13T09:51:57.046Z,50.866825
2023-02-13T09:52:57.073Z,50.866856
2023-02-13T09:53:57.058Z,50.866833
2023-02-13T09:54:57.018Z,50.866795
2023-02-13T09:55:57.351Z,50.866810
2023-02-13T09:56:56.991Z,50.866776
2023-02-13T09:57:57.664Z,50.866768
2023-02-13T09:58:56.976Z,50.866756
2023-02-13T09:59:56.977Z,50.866749
2023-02-13T10:00:56.979Z,50.866783
2023-02-13T10:01:57.007Z,50.866852
2023-02-13T10:03:01.566Z,50.866814
2023-02-13T10:03:56.934Z,50.866821
2023-02-13T10:04:57.045Z,50.866814
2023-02-13T10:05:57.288Z,50.866802
2023-02-13T10:06:56.913Z,50.866795
2023-02-13T10:07:56.904Z,50.866829
2023-02-13T10:08:56.896Z,50.866810
2023-02-13T10:09:56.893Z,50.866802
2023-02-13T10:10:56.893Z,50.866791
2023-02-13T10:11:56.860Z,50.866772
2023-02-13T10:12:57.877Z,50.866810
2023-02-13T10:13:56.846Z,50.866814
2023-02-13T10:14:56.856Z,50.866791
2023-02-13T10:15:57.203Z,50.866810
2023-02-13T10:16:56.838Z,50.866837
2023-02-13T10:17:56.810Z,50.866871
2023-02-13T10:18:56.803Z,50.866837
2023-02-13T10:19:56.852Z,50.866734
2023-02-13T10:20:56.799Z,50.866734
2023-02-13T10:21:58.659Z,50.866745
2023-02-13T10:22:57.789Z,50.866821
2023-02-13T10:23:56.779Z,50.866856
2023-02-13T10:24:56.762Z,50.866802
2023-02-13T10:25:57.523Z,50.866776
2023-02-13T10:26:56.753Z,50.866760
2023-02-13T10:27:56.731Z,50.866787
2023-02-13T10:28:56.723Z,50.866756
2023-02-13T10:29:57.541Z,50.866722
2023-02-13T10:30:56.858Z,50.866730
2023-02-13T10:31:56.796Z,50.866783
2023-02-13T10:32:57.667Z,50.866745
2023-02-13T21:25:36.753Z,50.866749
2023-02-13T21:26:36.702Z,50.866844
2023-02-13T21:27:37.681Z,50.866817
2023-02-13T21:28:36.707Z,50.866837
2023-02-13T21:29:36.722Z,50.866848
2023-02-13T21:30:36.669Z,50.866852
2023-02-13T21:31:36.782Z,50.866871
2023-02-13T21:32:36.676Z,50.866863
2023-02-13T21:33:36.641Z,50.866867
2023-02-13T21:34:36.677Z,50.866863
2023-02-13T21:35:36.645Z,50.866829
2023-02-13T21:36:36.626Z,50.866814
2023-02-13T21:37:36.618Z,50.866833
2023-02-13T21:38:36.639Z,50.866833
2023-02-13T21:39:36.620Z,50.866863
2023-02-13T21:40:36.592Z,50.866871
2023-02-13T21:41:36.587Z,50.866909
2023-02-13T21:42:36.576Z,50.866840
2023-02-13T21:43:37.214Z,50.866863
2023-02-13T21:44:36.570Z,50.866863
2023-02-13T21:45:37.216Z,50.866840
2023-02-13T21:46:36.558Z,50.866806
2023-02-13T21:47:36.541Z,50.866749
2023-02-13T21:48:36.538Z,50.866772
2023-02-13T21:49:36.550Z,50.866829
2023-02-13T21:50:36.517Z,50.866714
2023-02-13T21:51:36.520Z,50.866650
2023-02-13T21:52:36.647Z,50.866814
2023-02-13T21:53:37.575Z,50.866882
2023-02-13T21:54:36.497Z,50.866848
2023-02-13T21:55:37.211Z,50.866833
2023-02-13T21:56:36.483Z,50.866741
2023-02-13T21:57:36.468Z,50.866711
2023-02-13T21:58:36.469Z,50.866821
2023-02-13T21:59:36.454Z,50.866585
2023-02-13T22:00:36.465Z,50.866371
2023-02-13T22:01:36.501Z,50.866489
2023-02-13T22:02:36.496Z,50.866341
2023-02-13T22:03:36.431Z,50.866360
2023-02-13T22:04:36.434Z,50.866451
2023-02-13T22:05:36.413Z,50.866428
2023-02-13T22:06:36.400Z,50.866619
2023-02-13T22:07:36.416Z,50.866642
2023-02-13T22:08:36.386Z,50.866478
2023-02-13T22:09:36.402Z,50.866562
2023-02-13T22:10:36.373Z,50.866611
2023-02-13T22:11:36.356Z,50.866734
2023-02-13T22:12:36.351Z,50.866768
2023-02-13T22:13:36.348Z,50.866730
2023-02-13T22:14:36.354Z,50.866703
2023-02-13T22:15:36.340Z,50.866776
2023-02-13T22:16:36.362Z,50.866680
2023-02-13T22:17:36.304Z,50.866802
2023-02-13T22:18:36.299Z,50.866810
2023-02-13T22:19:36.303Z,50.866848
2023-02-13T22:20:36.338Z,50.866863
2023-02-13T22:21:36.278Z,50.866879
2023-02-13T22:22:36.409Z,50.867126
2023-02-13T22:23:36.926Z,50.866970
2023-02-13T22:24:37.260Z,50.866806
2023-02-13T22:25:36.283Z,50.866772
2023-02-13T22:26:36.251Z,50.866886
2023-02-13T22:27:36.248Z,50.866905
2023-02-13T22:28:36.222Z,50.866951
2023-02-13T22:29:37.205Z,50.866886
2023-02-13T22:30:36.368Z,50.866741
2023-02-13T22:31:36.321Z,50.866760
2023-02-13T22:32:36.195Z,50.866745
2023-02-13T22:33:36.187Z,50.866798
2023-02-13T22:34:36.177Z,50.866482
2023-02-13T22:35:36.180Z,50.866703
2023-02-13T22:36:36.187Z,50.866734
2023-02-13T22:37:36.160Z,50.866707
2023-02-13T22:38:36.149Z,50.866737
2023-02-13T22:39:36.146Z,50.866787
2023-02-13T22:40:36.128Z,50.866703
2023-02-13T22:41:36.131Z,50.866802
2023-02-13T22:42:36.120Z,50.866703
2023-02-13T22:43:36.102Z,50.866734
2023-02-13T22:44:36.117Z,50.866585